Time;durP1;ratioP1;P1;durP2;ratioP2;P2;SDS_P1;SDS_P2;PMS_P1;PMS_P2;Temp;Humidity;BMP_temperature;BMP_pressure;BME280_temperature;BME280_humidity;BME280_pressure;Samples;Min_cycle;Max_cycle;Signal;HPM_P1;HPM_P2
2020/12/15 00:01:24;;;;;;;19.43;15.60;;;5.80;99.90;;;;;;4970963;28;21076;-25
2020/12/15 00:03:51;;;;;;;20.70;15.50;;;5.80;99.90;;;;;;4970547;28;20445;-25
2020/12/15 00:06:18;;;;;;;17.77;15.57;;;5.80;99.90;;;;;;4971803;28;21001;-25
2020/12/15 00:08:45;;;;;;;18.07;14.80;;;5.80;99.90;;;;;;4970317;28;20528;-25
2020/12/15 00:11:18;;;;;;;21.97;16.87;;;5.80;99.90;;;;;;4969508;28;20434;-25
2020/12/15 00:13:45;;;;;;;21.27;17.23;;;5.80;99.90;;;;;;4970116;28;20477;-25
2020/12/15 00:16:12;;;;;;;21.00;16.57;;;5.80;99.90;;;;;;4971247;28;20457;-25
2020/12/15 00:18:38;;;;;;;22.83;17.33;;;5.70;99.90;;;;;;4970897;28;20843;-25
2020/12/15 00:21:05;;;;;;;17.20;14.83;;;5.70;99.90;;;;;;4969969;28;20442;-25
2020/12/15 00:23:32;;;;;;;17.10;15.40;;;5.70;99.90;;;;;;4969432;28;20437;-24
2020/12/15 00:25:59;;;;;;;22.43;16.50;;;5.70;99.90;;;;;;4972349;28;20476;-24
2020/12/15 00:28:26;;;;;;;22.70;17.17;;;5.70;99.90;;;;;;4970064;28;20456;-24
2020/12/15 00:30:53;;;;;;;19.20;16.60;;;5.70;99.90;;;;;;4971153;28;20832;-24
2020/12/15 00:33:20;;;;;;;21.83;15.90;;;5.80;99.90;;;;;;4969952;28;20865;-24
2020/12/15 00:35:48;;;;;;;20.90;16.60;;;5.80;99.90;;;;;;4971045;28;20722;-24
2020/12/15 00:38:15;;;;;;;17.93;15.13;;;5.80;99.90;;;;;;4970143;28;20449;-24
2020/12/15 00:40:42;;;;;;;18.57;16.10;;;5.80;99.90;;;;;;4970981;28;20778;-24
2020/12/15 00:43:09;;;;;;;18.23;15.87;;;5.80;99.90;;;;;;4970746;28;20445;-23
2020/12/15 00:45:36;;;;;;;22.10;15.80;;;5.80;99.90;;;;;;4968410;28;20457;-26
2020/12/15 00:48:02;;;;;;;18.43;16.50;;;5.80;99.90;;;;;;4970526;28;20765;-25
2020/12/15 00:50:29;;;;;;;17.53;15.63;;;5.80;99.90;;;;;;4984416;28;20508;-24
2020/12/15 00:52:56;;;;;;;17.97;15.43;;;5.80;99.90;;;;;;4982709;28;20441;-24
2020/12/15 00:55:23;;;;;;;20.80;14.90;;;5.90;99.90;;;;;;4984493;28;20500;-25
2020/12/15 00:57:50;;;;;;;18.47;15.47;;;5.90;99.90;;;;;;4985655;28;20462;-25
2020/12/15 01:00:17;;;;;;;17.97;14.13;;;5.90;99.90;;;;;;4969003;28;20460;-25
2020/12/15 01:02:44;;;;;;;18.00;14.00;;;5.90;99.90;;;;;;4985773;28;20702;-25
2020/12/15 01:05:11;;;;;;;20.30;13.93;;;5.90;99.90;;;;;;4986012;28;20448;-25
2020/12/15 01:07:39;;;;;;;17.73;13.23;;;5.90;99.90;;;;;;4986382;28;20736;-26
2020/12/15 01:10:07;;;;;;;16.80;13.93;;;5.90;99.90;;;;;;4984371;28;20438;-25
2020/12/15 01:12:37;;;;;;;17.90;13.93;;;5.90;99.90;;;;;;4985334;28;20535;-25
2020/12/15 01:15:06;;;;;;;17.03;13.57;;;6.00;99.90;;;;;;4985999;28;20495;-25
2020/12/15 01:17:34;;;;;;;13.80;11.70;;;6.00;99.90;;;;;;4987878;28;20461;-25
2020/12/15 01:20:01;;;;;;;15.33;11.40;;;6.00;99.90;;;;;;4989114;28;20552;-25
2020/12/15 01:22:29;;;;;;;12.27;10.60;;;6.10;99.90;;;;;;4988292;28;20433;-25
2020/12/15 01:24:56;;;;;;;11.93;10.73;;;6.10;99.90;;;;;;4986044;28;20458;-25
2020/12/15 01:27:31;;;;;;;13.80;11.83;;;6.10;99.90;;;;;;4988154;28;20799;-25
2020/12/15 01:30:04;;;;;;;12.10;10.80;;;6.20;99.90;;;;;;4987175;28;21060;-25
2020/12/15 01:32:57;;;;;;;11.03;9.40;;;6.10;99.90;;;;;;4966248;28;20477;-26
2020/12/15 01:35:41;;;;;;;11.87;10.60;;;6.10;99.90;;;;;;4986504;28;20449;-25
2020/12/15 01:38:08;;;;;;;11.90;10.70;;;6.20;99.90;;;;;;4987292;28;20718;-25
2020/12/15 01:40:34;;;;;;;11.80;9.60;;;6.10;99.90;;;;;;4986023;28;20614;-25
2020/12/15 01:43:02;;;;;;;11.00;9.90;;;6.10;99.90;;;;;;4984909;28;20706;-25
2020/12/15 01:45:28;;;;;;;15.10;10.23;;;6.10;99.90;;;;;;4987095;28;20489;-25
2020/12/15 01:47:57;;;;;;;14.00;9.67;;;6.10;99.90;;;;;;4984952;28;20441;-25
2020/12/15 01:50:31;;;;;;;12.20;11.07;;;6.00;99.90;;;;;;4984962;28;20508;-25
2020/12/15 01:52:58;;;;;;;10.97;9.87;;;6.00;99.90;;;;;;4987181;28;20493;-25
2020/12/15 01:55:26;;;;;;;13.90;11.13;;;6.00;99.90;;;;;;4986094;28;20473;-25
2020/12/15 01:58:06;;;;;;;11.53;10.07;;;6.00;99.90;;;;;;4970086;28;20440;-25
2020/12/15 02:00:37;;;;;;;11.13;10.07;;;6.00;99.90;;;;;;4986160;28;20461;-25
2020/12/15 02:03:14;;;;;;;12.97;11.57;;;6.00;99.90;;;;;;4971998;28;20589;-25
2020/12/15 02:05:59;;;;;;;11.70;10.37;;;6.00;99.90;;;;;;4974131;28;20952;-25
2020/12/15 02:08:30;;;;;;;11.87;10.67;;;6.00;99.90;;;;;;4990266;28;20448;-25
2020/12/15 02:10:57;;;;;;;11.97;10.50;;;6.00;99.90;;;;;;4992852;28;20445;-25
2020/12/15 02:13:29;;;;;;;11.43;9.57;;;6.00;99.90;;;;;;4994893;28;20765;-25
2020/12/15 02:15:59;;;;;;;12.27;9.80;;;6.10;99.90;;;;;;4977337;28;20484;-25
2020/12/15 02:18:28;;;;;;;12.73;10.03;;;6.10;99.90;;;;;;4975628;28;20445;-25
2020/12/15 02:21:03;;;;;;;10.37;9.37;;;6.10;99.90;;;;;;4989188;28;20445;-25
2020/12/15 02:23:38;;;;;;;10.63;9.63;;;6.20;99.90;;;;;;4987725;28;20452;-25
2020/12/15 02:26:19;;;;;;;9.87;8.90;;;6.20;99.90;;;;;;4976362;28;20756;-25
2020/12/15 02:28:45;;;;;;;10.90;9.80;;;6.20;99.90;;;;;;4989746;28;20512;-25
2020/12/15 02:31:12;;;;;;;10.30;9.30;;;6.00;99.90;;;;;;4988185;28;20914;-25
2020/12/15 02:33:44;;;;;;;10.80;9.73;;;6.00;99.90;;;;;;4986282;28;20461;-25
2020/12/15 02:36:11;;;;;;;10.67;9.67;;;6.00;99.90;;;;;;4987168;28;20852;-25
2020/12/15 02:39:02;;;;;;;9.93;8.70;;;6.10;99.90;;;;;;4985533;28;20639;-25
2020/12/15 02:41:29;;;;;;;12.07;9.10;;;6.10;99.90;;;;;;4986630;28;20460;-25
2020/12/15 02:43:59;;;;;;;11.20;10.10;;;6.20;99.90;;;;;;4988007;28;21016;-25
2020/12/15 02:46:26;;;;;;;11.27;10.10;;;6.20;99.90;;;;;;4987054;28;20465;-25
2020/12/15 02:48:54;;;;;;;11.33;9.10;;;6.20;99.90;;;;;;4987305;28;20543;-25
2020/12/15 02:51:21;;;;;;;12.33;11.10;;;6.20;99.90;;;;;;4986422;28;20441;-25
2020/12/15 02:54:08;;;;;;;10.30;9.30;;;6.30;99.90;;;;;;4988878;28;20553;-25
2020/12/15 02:56:35;;;;;;;11.07;10.00;;;6.30;99.90;;;;;;4986486;28;20864;-25
2020/12/15 02:59:05;;;;;;;11.23;9.67;;;6.40;99.90;;;;;;4989246;28;21031;-25
2020/12/15 03:01:32;;;;;;;11.10;8.97;;;6.40;99.90;;;;;;4988721;28;20552;-25
2020/12/15 03:04:00;;;;;;;11.17;10.07;;;6.50;99.90;;;;;;4971824;28;20471;-25
2020/12/15 03:06:36;;;;;;;10.70;9.60;;;6.50;99.90;;;;;;4987341;28;20496;-25
2020/12/15 03:09:06;;;;;;;11.03;10.00;;;6.50;99.90;;;;;;4988131;28;20732;-25
2020/12/15 03:11:35;;;;;;;13.27;12.07;;;6.50;99.90;;;;;;4988422;28;20524;-25
2020/12/15 03:14:09;;;;;;;14.03;11.07;;;6.50;99.90;;;;;;4986303;28;20504;-25
2020/12/15 03:16:36;;;;;;;11.97;10.87;;;6.50;99.90;;;;;;4988964;28;20455;-25
2020/12/15 03:19:03;;;;;;;11.43;10.10;;;6.50;99.90;;;;;;4973888;28;20532;-25
2020/12/15 03:21:30;;;;;;;12.23;11.00;;;6.50;99.90;;;;;;4973685;28;20441;-25
2020/12/15 03:23:57;;;;;;;13.63;10.30;;;6.50;99.90;;;;;;4986240;28;20563;-25
2020/12/15 03:26:26;;;;;;;13.37;10.60;;;6.60;99.90;;;;;;4987316;28;20473;-25
2020/12/15 03:28:55;;;;;;;10.93;9.93;;;6.60;99.90;;;;;;4987280;28;20537;-25
2020/12/15 03:31:23;;;;;;;11.03;9.40;;;6.60;99.90;;;;;;4972683;28;20539;-25
2020/12/15 03:33:49;;;;;;;11.30;10.20;;;6.60;99.90;;;;;;4987274;28;20505;-25
2020/12/15 03:36:17;;;;;;;12.47;10.63;;;6.60;99.90;;;;;;4987455;28;20437;-25
2020/12/15 03:38:46;;;;;;;11.87;10.67;;;6.60;99.90;;;;;;4986464;28;20847;-25
2020/12/15 03:41:13;;;;;;;13.07;10.23;;;6.60;99.90;;;;;;4986259;28;20441;-25
2020/12/15 03:43:49;;;;;;;14.27;10.80;;;6.60;99.90;;;;;;4985311;28;20438;-25
2020/12/15 03:46:43;;;;;;;13.20;11.20;;;6.60;99.90;;;;;;4985660;28;20445;-25
2020/12/15 03:49:14;;;;;;;10.37;9.37;;;6.60;99.90;;;;;;4986861;28;20495;-25
2020/12/15 03:51:47;;;;;;;16.50;11.80;;;6.60;99.90;;;;;;4986918;28;20453;-25
2020/12/15 03:54:40;;;;;;;12.63;10.33;;;6.40;99.90;;;;;;4972377;28;20458;-25
2020/12/15 03:57:38;;;;;;;12.77;10.50;;;6.50;99.90;;;;;;4986317;28;20604;-25
2020/12/15 04:00:17;;;;;;;9.37;8.47;;;6.40;99.90;;;;;;4984454;28;20622;-25
2020/12/15 04:02:52;;;;;;;9.90;8.60;;;6.40;99.90;;;;;;4986806;28;20522;-25
2020/12/15 04:05:30;;;;;;;9.80;8.83;;;6.40;99.90;;;;;;4971717;28;20448;-25
2020/12/15 04:08:00;;;;;;;8.60;7.83;;;6.40;99.90;;;;;;4984899;28;20916;-25
2020/12/15 04:10:27;;;;;;;11.10;9.03;;;6.40;99.90;;;;;;4985315;28;20719;-25
2020/12/15 04:12:57;;;;;;;15.43;10.23;;;6.50;99.90;;;;;;4986866;28;20738;-25
2020/12/15 04:15:27;;;;;;;12.57;9.43;;;6.50;99.90;;;;;;4986348;28;20623;-25
2020/12/15 04:17:56;;;;;;;10.07;9.17;;;6.60;99.90;;;;;;4984366;28;20464;-25
2020/12/15 04:20:22;;;;;;;10.20;9.30;;;6.60;99.90;;;;;;4983725;28;20597;-25
2020/12/15 04:22:49;;;;;;;9.20;8.30;;;6.50;99.90;;;;;;4984714;28;20732;-25
2020/12/15 04:25:20;;;;;;;9.27;8.47;;;6.30;99.90;;;;;;4984841;28;20557;-25
2020/12/15 04:27:47;;;;;;;9.13;8.33;;;6.40;99.90;;;;;;4969591;28;20516;-25
2020/12/15 04:30:14;;;;;;;11.80;10.60;;;6.50;99.90;;;;;;4984151;28;20485;-25
2020/12/15 04:32:41;;;;;;;11.93;10.73;;;6.50;99.90;;;;;;4984693;28;20445;-25
2020/12/15 04:35:14;;;;;;;11.23;10.03;;;6.60;99.90;;;;;;4984355;28;20496;-25
2020/12/15 04:37:45;;;;;;;10.00;8.97;;;6.60;99.90;;;;;;4985173;28;20671;-25
2020/12/15 04:40:17;;;;;;;10.50;9.50;;;6.60;99.90;;;;;;4983738;28;20881;-25
2020/12/15 04:42:46;;;;;;;10.30;7.97;;;6.60;99.90;;;;;;4984573;28;20429;-25
2020/12/15 04:45:15;;;;;;;8.60;7.80;;;6.60;99.90;;;;;;4984031;28;20461;-25
2020/12/15 04:47:53;;;;;;;8.80;8.00;;;6.60;99.90;;;;;;4983827;28;20645;-25
2020/12/15 04:50:33;;;;;;;10.77;8.90;;;6.50;99.90;;;;;;4968974;28;20532;-25
2020/12/15 04:53:09;;;;;;;9.17;8.27;;;6.30;99.90;;;;;;4985290;28;20444;-25
2020/12/15 04:56:21;;;;;;;9.07;8.17;;;6.20;99.90;;;;;;4970654;28;20675;-25
2020/12/15 04:58:49;;;;;;;8.70;7.83;;;6.20;99.90;;;;;;4982069;28;20516;-25
2020/12/15 05:01:21;;;;;;;11.87;8.40;;;6.30;99.90;;;;;;4980244;28;20741;-25
2020/12/15 05:04:06;;;;;;;8.73;7.30;;;6.30;99.90;;;;;;4980384;28;20437;-25
2020/12/15 05:06:44;;;;;;;9.07;8.10;;;6.30;99.90;;;;;;4981781;28;20433;-25
2020/12/15 05:09:12;;;;;;;9.27;8.47;;;6.40;99.90;;;;;;4981300;28;20453;-25
2020/12/15 05:11:38;;;;;;;9.70;8.70;;;6.50;99.90;;;;;;4982384;28;20453;-25
2020/12/15 05:14:15;;;;;;;15.63;11.90;;;6.50;99.90;;;;;;4981213;28;20543;-25
2020/12/15 05:16:43;;;;;;;12.00;10.70;;;6.60;99.90;;;;;;4981077;28;20453;-25
2020/12/15 05:19:30;;;;;;;15.40;12.03;;;6.60;99.90;;;;;;4962297;28;20685;-25
2020/12/15 05:21:58;;;;;;;11.73;9.20;;;6.60;99.90;;;;;;4980407;28;20445;-25
2020/12/15 05:24:30;;;;;;;9.20;8.40;;;6.70;99.90;;;;;;4978188;28;20473;-25
2020/12/15 05:26:59;;;;;;;9.60;8.60;;;6.70;99.90;;;;;;4977771;28;20449;-25
2020/12/15 05:29:28;;;;;;;9.07;8.17;;;6.70;99.90;;;;;;4978076;28;20469;-25
2020/12/15 05:32:09;;;;;;;9.13;7.50;;;6.80;99.90;;;;;;4977783;28;20716;-25
2020/12/15 05:35:09;;;;;;;12.50;8.83;;;6.80;99.90;;;;;;4952406;28;20919;-25
2020/12/15 05:37:55;;;;;;;9.20;8.30;;;6.80;99.90;;;;;;4964197;28;20445;-25
2020/12/15 05:40:43;;;;;;;9.43;8.60;;;6.80;99.90;;;;;;4968828;28;20457;-25
2020/12/15 05:43:27;;;;;;;9.77;8.73;;;6.80;99.90;;;;;;4982609;28;20487;-25
2020/12/15 05:45:58;;;;;;;10.33;9.40;;;6.80;99.90;;;;;;4977778;28;20492;-25
2020/12/15 05:48:27;;;;;;;11.23;9.70;;;6.80;99.90;;;;;;4963208;28;20445;-25
2020/12/15 05:50:57;;;;;;;11.47;10.37;;;6.80;99.90;;;;;;4963506;28;20503;-25
2020/12/15 05:53:25;;;;;;;11.83;10.57;;;6.70;99.90;;;;;;4962255;28;20534;-25
2020/12/15 05:55:51;;;;;;;13.07;11.70;;;6.70;99.90;;;;;;4963691;28;20496;-25
2020/12/15 05:58:18;;;;;;;13.57;11.97;;;6.70;99.90;;;;;;4962398;28;20444;-25
2020/12/15 06:00:44;;;;;;;16.43;11.40;;;6.70;99.90;;;;;;4976034;28;20783;-25
2020/12/15 06:03:12;;;;;;;11.13;10.00;;;6.70;99.90;;;;;;4960147;28;20651;-25
2020/12/15 06:05:40;;;;;;;15.00;10.30;;;6.80;99.90;;;;;;4974474;28;20958;-25
2020/12/15 06:08:07;;;;;;;9.97;9.03;;;6.80;99.90;;;;;;4957190;28;20793;-25
2020/12/15 06:10:35;;;;;;;11.77;9.43;;;6.80;99.90;;;;;;4956053;28;20453;-25
2020/12/15 06:13:04;;;;;;;9.47;8.53;;;6.80;99.90;;;;;;4960690;28;21058;-25
2020/12/15 06:15:30;;;;;;;8.97;8.10;;;6.80;99.90;;;;;;4973879;28;20843;-25
2020/12/15 06:18:00;;;;;;;10.53;9.53;;;6.80;99.90;;;;;;4956491;28;20883;-25
2020/12/15 06:20:33;;;;;;;10.87;9.87;;;6.80;99.90;;;;;;4958798;28;20448;-25
2020/12/15 06:23:00;;;;;;;10.37;9.47;;;6.80;99.90;;;;;;4958625;28;20610;-25
2020/12/15 06:25:29;;;;;;;15.60;12.37;;;6.80;99.90;;;;;;4958959;28;20433;-25
2020/12/15 06:28:07;;;;;;;14.27;11.20;;;6.80;99.90;;;;;;4956924;28;20495;-25
2020/12/15 06:30:36;;;;;;;13.57;12.27;;;6.80;99.90;;;;;;4960559;28;20492;-25
2020/12/15 06:33:05;;;;;;;17.77;13.77;;;6.90;99.90;;;;;;4952872;28;20449;-25
2020/12/15 06:35:32;;;;;;;16.80;14.17;;;6.80;99.90;;;;;;4952033;28;20781;-25
2020/12/15 06:37:59;;;;;;;13.50;11.87;;;6.90;99.90;;;;;;4958907;28;20752;-25
2020/12/15 06:40:25;;;;;;;12.90;11.67;;;6.90;99.90;;;;;;4976030;28;20461;-25
2020/12/15 06:42:54;;;;;;;15.17;13.27;;;6.80;99.90;;;;;;4955929;28;20441;-25
2020/12/15 06:45:23;;;;;;;14.53;11.03;;;6.80;99.90;;;;;;4969915;28;20535;-25
2020/12/15 06:47:57;;;;;;;10.00;9.00;;;6.80;99.90;;;;;;4958832;28;20894;-25
2020/12/15 06:50:26;;;;;;;11.63;10.03;;;6.80;99.90;;;;;;4956384;28;20453;-25
2020/12/15 06:52:53;;;;;;;10.23;9.43;;;6.80;99.90;;;;;;4956719;28;20922;-25
2020/12/15 06:55:29;;;;;;;9.60;8.80;;;6.80;99.90;;;;;;4953632;28;20628;-25
2020/12/15 06:57:59;;;;;;;10.37;9.37;;;6.80;99.90;;;;;;4949694;28;20875;-25
2020/12/15 07:00:35;;;;;;;12.67;8.93;;;6.70;99.90;;;;;;4947602;28;20543;-25
2020/12/15 07:03:02;;;;;;;9.80;8.90;;;6.70;99.90;;;;;;4944934;28;20665;-25
2020/12/15 07:05:29;;;;;;;12.97;10.57;;;6.70;99.90;;;;;;4941099;28;20560;-25
2020/12/15 07:07:57;;;;;;;12.70;11.40;;;6.70;99.90;;;;;;4943766;28;20879;-25
2020/12/15 07:10:27;;;;;;;14.20;9.87;;;6.70;99.90;;;;;;4943683;28;20445;-25
2020/12/15 07:12:58;;;;;;;15.93;10.30;;;6.80;99.90;;;;;;4941100;28;20890;-25
2020/12/15 07:15:27;;;;;;;10.87;9.77;;;6.80;99.90;;;;;;4940566;28;20639;-25
2020/12/15 07:17:54;;;;;;;13.33;11.90;;;6.90;99.90;;;;;;4942427;28;20646;-25
2020/12/15 07:20:22;;;;;;;15.93;12.37;;;6.90;99.90;;;;;;4945280;28;20465;-25
2020/12/15 07:22:49;;;;;;;12.40;10.30;;;6.90;99.90;;;;;;4945131;28;20449;-25
2020/12/15 07:25:18;;;;;;;29.10;22.13;;;7.00;99.90;;;;;;4948245;28;20460;-25
2020/12/15 07:27:45;;;;;;;18.60;11.90;;;7.00;99.90;;;;;;4942387;28;20601;-25
2020/12/15 07:30:14;;;;;;;10.97;9.87;;;6.90;99.90;;;;;;4921986;28;20493;-25
2020/12/15 07:32:42;;;;;;;10.07;9.23;;;6.80;99.90;;;;;;4937974;28;20493;-25
2020/12/15 07:35:13;;;;;;;12.40;8.73;;;6.70;99.90;;;;;;4940623;28;20540;-25
2020/12/15 07:37:41;;;;;;;12.40;9.60;;;6.70;99.90;;;;;;4943186;28;21282;-25
2020/12/15 07:40:10;;;;;;;11.80;10.70;;;6.80;99.90;;;;;;4933809;28;20449;-25
2020/12/15 07:42:38;;;;;;;9.03;8.17;;;6.90;99.90;;;;;;4949526;28;20466;-24
2020/12/15 07:45:06;;;;;;;10.47;8.63;;;6.90;99.90;;;;;;4941010;28;20465;-24
2020/12/15 07:47:39;;;;;;;10.43;9.40;;;7.00;99.90;;;;;;4947238;28;20446;-24
2020/12/15 07:50:07;;;;;;;10.13;8.97;;;7.10;99.90;;;;;;4930816;28;20557;-24
2020/12/15 07:52:35;;;;;;;15.33;11.03;;;7.10;99.90;;;;;;4946789;28;20524;-24
2020/12/15 07:55:06;;;;;;;10.40;9.30;;;7.20;99.90;;;;;;4933205;28;20973;-24
2020/12/15 07:57:35;;;;;;;12.43;9.23;;;7.10;99.90;;;;;;4924644;28;20445;-24
2020/12/15 08:00:10;;;;;;;10.13;9.07;;;7.20;99.90;;;;;;4931436;28;20461;-24
2020/12/15 08:03:08;;;;;;;9.70;8.70;;;7.10;99.90;;;;;;4943496;28;20870;-24
2020/12/15 08:05:35;;;;;;;9.87;8.93;;;7.00;99.90;;;;;;4922831;28;20498;-24
2020/12/15 08:08:03;;;;;;;12.60;11.30;;;6.80;99.90;;;;;;4946698;28;20532;-24
2020/12/15 08:10:31;;;;;;;12.07;10.80;;;6.90;99.90;;;;;;4950048;28;20508;-24
2020/12/15 08:13:05;;;;;;;15.27;10.50;;;7.00;99.90;;;;;;4948232;28;20445;-24
2020/12/15 08:15:38;;;;;;;10.53;9.43;;;7.20;99.90;;;;;;4944096;28;20532;-25
2020/12/15 08:18:08;;;;;;;10.57;9.03;;;7.40;99.90;;;;;;4943130;28;20453;-26
2020/12/15 08:20:35;;;;;;;11.27;8.83;;;7.50;99.90;;;;;;4944375;28;20469;-25
2020/12/15 08:23:09;;;;;;;10.87;9.83;;;7.60;99.90;;;;;;4939907;28;20650;-25
2020/12/15 08:25:36;;;;;;;9.97;8.97;;;7.70;99.90;;;;;;4937214;28;20442;-24
2020/12/15 08:28:21;;;;;;;11.00;8.77;;;7.80;99.90;;;;;;4922318;29;20457;-26
2020/12/15 08:30:53;;;;;;;13.83;11.37;;;7.70;99.90;;;;;;4962502;28;20710;-25
2020/12/15 08:33:22;;;;;;;10.87;9.80;;;7.60;99.90;;;;;;4930361;28;20462;-25
2020/12/15 08:35:50;;;;;;;11.03;9.70;;;7.60;99.90;;;;;;4954768;28;20506;-25
2020/12/15 08:38:17;;;;;;;12.43;9.93;;;7.50;99.90;;;;;;4934951;28;21148;-25
2020/12/15 08:40:51;;;;;;;11.37;10.20;;;7.50;99.90;;;;;;4922743;28;21038;-25
2020/12/15 08:43:18;;;;;;;10.30;9.37;;;7.50;99.90;;;;;;4933376;28;20437;-25
2020/12/15 08:45:45;;;;;;;12.80;11.50;;;7.50;99.90;;;;;;4921100;28;21263;-25
2020/12/15 08:48:16;;;;;;;11.33;10.27;;;7.40;99.90;;;;;;4923055;29;20474;-25
2020/12/15 08:50:43;;;;;;;15.20;12.77;;;7.50;99.90;;;;;;4925903;28;20513;-25
2020/12/15 08:53:13;;;;;;;11.87;10.40;;;7.50;99.90;;;;;;4940603;28;20454;-25
2020/12/15 08:55:43;;;;;;;11.50;10.30;;;7.60;99.90;;;;;;4938742;28;20496;-25
2020/12/15 08:58:11;;;;;;;13.00;9.30;;;7.70;99.90;;;;;;4947613;28;20457;-25
2020/12/15 09:00:40;;;;;;;13.60;11.07;;;7.80;99.90;;;;;;4938102;28;21447;-26
2020/12/15 09:03:09;;;;;;;12.10;10.90;;;8.00;99.90;;;;;;4912376;28;20460;-25
2020/12/15 09:05:48;;;;;;;10.00;9.10;;;8.10;99.90;;;;;;4917890;28;20652;-26
2020/12/15 09:08:15;;;;;;;10.77;9.77;;;8.30;99.90;;;;;;4917123;28;21015;-26
2020/12/15 09:10:43;;;;;;;11.30;10.30;;;8.30;99.90;;;;;;4917949;28;20450;-24
2020/12/15 09:13:13;;;;;;;11.20;10.00;;;8.40;99.90;;;;;;4934918;28;20471;-26
2020/12/15 09:15:47;;;;;;;10.40;9.40;;;8.50;99.90;;;;;;4937247;28;20619;-25
2020/12/15 09:18:15;;;;;;;12.00;10.70;;;8.60;99.90;;;;;;4940032;28;20437;-26
2020/12/15 09:20:44;;;;;;;13.20;10.27;;;8.60;99.90;;;;;;4935890;28;20568;-26
2020/12/15 09:23:11;;;;;;;10.37;9.27;;;8.70;99.90;;;;;;4942129;28;20741;-25
2020/12/15 09:25:38;;;;;;;11.00;9.90;;;8.80;99.90;;;;;;4937289;28;20638;-26
2020/12/15 09:28:06;;;;;;;14.50;11.13;;;9.00;99.90;;;;;;4951676;28;20511;-26
2020/12/15 09:30:32;;;;;;;15.90;11.43;;;9.10;99.90;;;;;;4947742;28;20682;-26
2020/12/15 09:33:03;;;;;;;10.80;9.70;;;9.20;99.90;;;;;;4933273;28;20563;-26
2020/12/15 09:35:30;;;;;;;12.23;11.00;;;9.20;99.90;;;;;;4921825;28;20714;-26
2020/12/15 09:37:59;;;;;;;12.77;11.10;;;9.30;99.90;;;;;;4932689;28;20567;-26
2020/12/15 09:40:26;;;;;;;11.70;9.97;;;9.30;99.90;;;;;;4937054;28;21029;-24
2020/12/15 09:42:55;;;;;;;13.13;10.33;;;9.40;99.90;;;;;;4939495;28;20452;-26
2020/12/15 09:45:23;;;;;;;11.93;10.73;;;9.40;99.90;;;;;;4939510;28;20569;-26
2020/12/15 09:47:50;;;;;;;14.90;12.30;;;9.50;99.90;;;;;;4935672;28;20469;-26
2020/12/15 09:50:16;;;;;;;11.93;10.70;;;9.50;99.90;;;;;;4933755;28;20545;-24
2020/12/15 09:52:43;;;;;;;12.97;11.57;;;9.50;99.90;;;;;;4938422;28;20461;-24
2020/12/15 09:55:09;;;;;;;12.60;11.30;;;9.50;99.90;;;;;;4935029;28;20572;-24
2020/12/15 09:57:36;;;;;;;13.93;12.20;;;9.50;99.90;;;;;;4928811;28;20447;-24
2020/12/15 10:00:03;;;;;;;12.03;10.97;;;9.50;99.90;;;;;;4932605;28;20457;-24
2020/12/15 10:02:34;;;;;;;13.47;11.10;;;9.60;99.90;;;;;;4931182;28;20575;-25
2020/12/15 10:05:01;;;;;;;12.03;10.73;;;9.60;99.90;;;;;;4939616;28;20449;-24
2020/12/15 10:07:28;;;;;;;12.60;11.37;;;9.60;99.90;;;;;;4936591;28;20452;-24
2020/12/15 10:09:57;;;;;;;12.90;11.30;;;9.60;99.90;;;;;;4930904;28;20589;-24
2020/12/15 10:12:24;;;;;;;12.87;11.10;;;9.50;99.90;;;;;;4921418;28;20450;-25
2020/12/15 10:15:05;;;;;;;11.83;10.80;;;9.50;99.90;;;;;;4932350;28;20493;-26
2020/12/15 10:17:32;;;;;;;12.80;11.27;;;9.40;99.90;;;;;;4949437;28;20802;-25
2020/12/15 10:20:01;;;;;;;12.00;10.53;;;9.40;99.90;;;;;;4934948;28;20457;-25
2020/12/15 10:22:28;;;;;;;12.20;11.00;;;9.30;99.90;;;;;;4937057;28;20459;-26
2020/12/15 10:24:54;;;;;;;13.30;11.90;;;9.40;99.90;;;;;;4924823;28;20694;-23
2020/12/15 10:27:21;;;;;;;16.53;14.30;;;9.40;99.90;;;;;;4939130;28;20940;-23
2020/12/15 10:29:48;;;;;;;15.60;14.03;;;9.50;99.90;;;;;;4934094;28;20461;-24
2020/12/15 10:32:14;;;;;;;14.00;12.50;;;9.60;99.90;;;;;;4944310;28;20449;-24
2020/12/15 10:34:41;;;;;;;12.53;11.23;;;9.60;99.90;;;;;;4940625;28;20473;-24
2020/12/15 10:37:09;;;;;;;11.23;10.13;;;9.80;99.90;;;;;;4942798;28;21005;-25
2020/12/15 10:39:36;;;;;;;13.07;11.87;;;9.90;99.90;;;;;;4940750;28;20456;-24
2020/12/15 10:42:03;;;;;;;12.40;10.90;;;9.90;99.90;;;;;;4935726;28;20456;-24
2020/12/15 10:44:29;;;;;;;12.27;10.97;;;9.90;99.90;;;;;;4917820;28;20472;-24
2020/12/15 10:47:00;;;;;;;12.00;10.90;;;10.00;99.90;;;;;;4925349;28;20437;-24
2020/12/15 10:49:28;;;;;;;12.23;10.63;;;10.00;99.90;;;;;;4903799;29;21054;-24
2020/12/15 10:51:54;;;;;;;13.80;11.13;;;10.10;99.90;;;;;;4916045;28;20448;-24
2020/12/15 10:54:22;;;;;;;13.57;12.17;;;10.20;99.90;;;;;;4890842;28;20957;-24
2020/12/15 10:56:49;;;;;;;15.90;14.20;;;10.30;99.90;;;;;;4901567;28;20480;-24
2020/12/15 10:59:16;;;;;;;14.10;12.60;;;10.30;99.90;;;;;;4913837;28;20552;-24
2020/12/15 11:01:43;;;;;;;14.77;11.30;;;10.30;99.90;;;;;;4898702;28;20444;-24
2020/12/15 11:04:09;;;;;;;13.00;11.70;;;10.40;99.90;;;;;;4931948;28;20441;-25
2020/12/15 11:06:41;;;;;;;12.47;11.17;;;10.40;99.90;;;;;;4943543;28;20896;-25
2020/12/15 11:09:07;;;;;;;15.10;11.80;;;10.40;99.90;;;;;;4926057;28;20472;-25
2020/12/15 11:11:35;;;;;;;12.70;11.30;;;10.40;99.90;;;;;;4928294;28;20450;-25
2020/12/15 11:14:02;;;;;;;13.83;12.37;;;10.40;99.90;;;;;;4939122;28;20498;-25
2020/12/15 11:16:28;;;;;;;13.73;12.30;;;10.50;99.90;;;;;;4940140;28;20811;-25
2020/12/15 11:18:55;;;;;;;12.00;10.77;;;10.60;99.90;;;;;;4935328;28;20695;-25
2020/12/15 11:21:21;;;;;;;11.70;10.60;;;10.80;99.90;;;;;;4938395;28;20461;-23
2020/12/15 11:23:48;;;;;;;10.87;9.80;;;10.90;99.90;;;;;;4936612;28;20782;-25
2020/12/15 11:26:16;;;;;;;11.50;10.30;;;11.00;99.90;;;;;;4923266;28;20453;-25
2020/12/15 11:28:44;;;;;;;11.03;10.03;;;11.10;99.90;;;;;;4929319;28;21305;-25
2020/12/15 11:31:11;;;;;;;12.20;10.37;;;11.20;99.90;;;;;;4926352;28;20487;-25
2020/12/15 11:33:39;;;;;;;11.80;10.60;;;11.20;99.90;;;;;;4939250;28;20448;-25
2020/12/15 11:36:06;;;;;;;11.27;10.03;;;11.20;99.90;;;;;;4920058;28;20616;-25
2020/12/15 11:38:39;;;;;;;12.50;11.30;;;11.00;99.90;;;;;;4938255;28;20453;-25
2020/12/15 11:41:07;;;;;;;14.23;12.83;;;10.80;99.90;;;;;;4916112;28;20455;-25
2020/12/15 11:43:34;;;;;;;12.20;11.13;;;10.60;99.90;;;;;;4932401;28;20441;-25
2020/12/15 11:46:01;;;;;;;14.20;11.33;;;10.70;99.90;;;;;;4933590;28;20437;-26
2020/12/15 11:48:28;;;;;;;11.80;10.70;;;10.80;99.90;;;;;;4927635;28;21194;-25
2020/12/15 11:50:54;;;;;;;11.03;9.97;;;10.80;99.90;;;;;;4937798;28;20537;-25
2020/12/15 11:53:20;;;;;;;10.50;9.60;;;10.90;99.90;;;;;;4938909;28;20453;-25
2020/12/15 11:55:48;;;;;;;10.73;9.70;;;11.00;99.90;;;;;;4924562;28;20489;-25
2020/12/15 11:58:14;;;;;;;12.17;10.43;;;11.00;99.90;;;;;;4921285;28;20442;-25
2020/12/15 12:00:41;;;;;;;12.57;11.00;;;11.10;99.90;;;;;;4919666;29;20823;-25
2020/12/15 12:03:08;;;;;;;10.73;9.67;;;11.20;99.90;;;;;;4934195;28;20479;-25
2020/12/15 12:05:35;;;;;;;10.97;9.97;;;11.30;99.90;;;;;;4933285;28;20453;-25
2020/12/15 12:08:02;;;;;;;12.53;11.07;;;11.40;99.90;;;;;;4925417;28;21270;-25
2020/12/15 12:10:28;;;;;;;12.20;11.03;;;11.50;99.90;;;;;;4929126;28;20452;-25
2020/12/15 12:12:55;;;;;;;15.50;10.00;;;11.50;99.90;;;;;;4943638;28;20476;-25
2020/12/15 12:15:24;;;;;;;11.50;10.10;;;11.40;99.90;;;;;;4962077;28;20492;-24
2020/12/15 12:17:51;;;;;;;10.63;9.40;;;11.50;99.90;;;;;;4940092;28;20919;-25
2020/12/15 12:20:19;;;;;;;10.27;9.27;;;11.50;99.90;;;;;;4938148;28;20709;-24
2020/12/15 12:22:47;;;;;;;12.40;11.17;;;11.50;99.90;;;;;;4945460;28;20931;-24
2020/12/15 12:25:13;;;;;;;12.20;11.07;;;11.40;99.90;;;;;;4921883;28;20468;-25
2020/12/15 12:27:40;;;;;;;13.83;10.70;;;11.40;99.90;;;;;;4954984;28;20445;-25
2020/12/15 12:30:06;;;;;;;12.73;11.37;;;11.40;99.90;;;;;;4932007;28;20487;-24
2020/12/15 12:32:33;;;;;;;14.50;12.87;;;11.40;99.90;;;;;;4939876;28;20445;-25
2020/12/15 12:35:00;;;;;;;15.53;11.40;;;11.50;99.90;;;;;;4941603;28;20711;-24
2020/12/15 12:37:28;;;;;;;15.33;12.77;;;11.50;99.90;;;;;;4943484;28;20519;-24
2020/12/15 12:39:54;;;;;;;14.33;12.90;;;11.50;99.90;;;;;;4940419;28;20445;-24
2020/12/15 12:42:21;;;;;;;14.80;13.30;;;11.50;99.90;;;;;;4943544;28;20501;-24
2020/12/15 12:44:47;;;;;;;15.43;12.33;;;11.50;99.90;;;;;;4942044;28;20461;-24
2020/12/15 12:53:24;;;;;;;13.07;11.83;;;11.70;99.90;;;;;;4926072;28;20856;-24
2020/12/15 12:55:51;;;;;;;15.93;13.73;;;11.80;99.90;;;;;;4923475;28;20498;-24
2020/12/15 12:58:17;;;;;;;20.23;12.20;;;11.90;99.90;;;;;;4918161;28;20457;-24
2020/12/15 13:00:45;;;;;;;26.87;21.13;;;11.90;99.90;;;;;;4918841;28;20473;-24